Washingtonville, Ohio
Current Conditions -  °F | °C
As of 5:47 PM on Wednesday 22 Oct 2014 (Local Time) from KBVI Reporting Station
Overcast Overcast  
Wind Chill: 42°   Ceiling: 1800
Heat Index: 46°   Visibility: 10mi
Dew Point: 41°   Wind: 8mph
Humidity: 81%   Direction: 350°N
Pressure: 30.18"   Gusts: 16mph
Location:  40.9°N, 80.76°W
Report Text: KBVI 222147Z 35007G14KT 10SM OVC018 08/05 A3018
Loading
Personal Weather Stations






























Interactive Weather Map
Tropical Storm Tracking
New forecast layout! Learn more

10-Day Weather Forecast

Advertisements
Track Severe Weather on mobile